createdAt,value
2018-08-03T00:00:11.428Z,24.70
2018-08-03T00:02:46.585Z,24.60
2018-08-03T00:05:21.636Z,25.30
2018-08-03T00:07:56.783Z,24.70
2018-08-03T00:10:32.009Z,24.20
2018-08-03T00:13:07.027Z,24.30
2018-08-03T00:15:41.967Z,24.50
2018-08-03T00:18:16.972Z,24.20
2018-08-03T00:20:51.973Z,24.10
2018-08-03T00:23:27.028Z,24.30
2018-08-03T00:26:02.028Z,24.30
2018-08-03T00:28:37.123Z,24.60
2018-08-03T00:31:12.079Z,24.50
2018-08-03T00:33:47.219Z,24.30
2018-08-03T00:36:22.353Z,24.70
2018-08-03T00:38:57.468Z,24.30
2018-08-03T00:41:32.547Z,24.40
2018-08-03T00:44:07.741Z,24.50
2018-08-03T00:46:42.824Z,24.40
2018-08-03T00:49:17.849Z,24.10
2018-08-03T00:51:53.009Z,24.00
2018-08-03T00:54:27.996Z,24.10
2018-08-03T00:57:03.207Z,23.70
2018-08-03T00:59:38.304Z,23.70
2018-08-03T01:02:13.336Z,23.80
2018-08-03T01:07:23.256Z,24.20
2018-08-03T01:09:58.228Z,24.30
2018-08-03T01:12:33.205Z,24.20
2018-08-03T01:15:08.383Z,23.80
2018-08-03T01:17:43.325Z,23.70
2018-08-03T01:20:18.427Z,24.40
2018-08-03T01:22:53.480Z,23.80
2018-08-03T01:25:28.740Z,23.70
2018-08-03T01:28:03.828Z,23.40
2018-08-03T01:30:38.927Z,23.40
2018-08-03T01:33:14.116Z,23.40
2018-08-03T01:35:49.160Z,23.30
2018-08-03T01:38:24.253Z,23.40
2018-08-03T01:40:59.358Z,23.40
2018-08-03T01:43:34.452Z,23.00
2018-08-03T01:46:09.511Z,23.30
2018-08-03T01:48:44.540Z,23.10
2018-08-03T01:51:20.428Z,23.30
2018-08-03T01:53:55.556Z,23.00
2018-08-03T01:56:30.704Z,23.10
2018-08-03T01:59:05.793Z,23.10
2018-08-03T02:01:40.972Z,23.50
2018-08-03T02:04:15.948Z,23.30
2018-08-03T02:06:51.051Z,23.60
2018-08-03T02:09:26.109Z,23.80
2018-08-03T02:12:01.083Z,23.40
2018-08-03T02:14:36.141Z,23.00
2018-08-03T02:17:11.204Z,23.00
2018-08-03T02:19:46.184Z,23.00
2018-08-03T02:22:21.140Z,22.90
2018-08-03T02:24:56.276Z,23.10
2018-08-03T02:27:31.528Z,23.70
2018-08-03T02:30:06.655Z,23.80
2018-08-03T02:32:41.616Z,23.60
2018-08-03T02:37:51.560Z,22.80
2018-08-03T02:40:26.620Z,22.90
2018-08-03T02:43:01.697Z,22.80
2018-08-03T02:45:36.916Z,22.90
2018-08-03T02:48:11.981Z,22.90
2018-08-03T02:50:47.109Z,22.60
2018-08-03T02:53:22.080Z,22.90
2018-08-03T02:55:57.224Z,22.80
2018-08-03T02:58:32.178Z,22.50
2018-08-03T03:01:07.846Z,22.90
2018-08-03T03:03:42.918Z,22.80
2018-08-03T03:06:18.077Z,22.70
2018-08-03T03:08:53.193Z,22.40
2018-08-03T03:11:28.189Z,22.60
2018-08-03T03:14:03.494Z,22.30
2018-08-03T03:16:38.477Z,22.10
2018-08-03T03:19:13.640Z,22.80
2018-08-03T03:21:48.784Z,22.90
2018-08-03T03:24:23.796Z,23.00
2018-08-03T03:26:58.820Z,22.40
2018-08-03T03:29:33.941Z,22.30
2018-08-03T03:32:09.064Z,22.20
2018-08-03T03:34:44.192Z,23.10
2018-08-03T03:37:19.408Z,22.70
2018-08-03T03:39:54.344Z,22.30
2018-08-03T03:42:29.444Z,23.10
2018-08-03T03:45:04.976Z,23.50
2018-08-03T03:47:39.904Z,23.00
2018-08-03T03:50:15.040Z,22.20
2018-08-03T03:52:50.140Z,22.10
2018-08-03T03:55:25.360Z,22.10
2018-08-03T03:58:00.324Z,22.60
2018-08-03T04:00:35.374Z,22.60
2018-08-03T04:03:10.414Z,22.70
2018-08-03T04:05:45.528Z,22.50
2018-08-03T04:08:20.528Z,22.20
2018-08-03T04:10:55.685Z,22.10
2018-08-03T04:13:31.139Z,22.10
2018-08-03T04:18:41.187Z,22.30
2018-08-03T04:21:16.292Z,22.20
2018-08-03T04:23:51.253Z,22.50
2018-08-03T04:26:26.243Z,22.10
2018-08-03T04:29:01.228Z,22.20
2018-08-03T04:31:36.296Z,22.30
2018-08-03T04:34:11.407Z,22.20
2018-08-03T04:36:46.493Z,21.90
2018-08-03T04:39:21.504Z,21.40
2018-08-03T04:41:56.739Z,22.00
2018-08-03T04:44:31.657Z,22.30
2018-08-03T04:47:06.654Z,22.30
2018-08-03T04:49:41.628Z,21.80
2018-08-03T04:52:16.600Z,21.80
2018-08-03T04:54:51.709Z,22.00
2018-08-03T04:57:27.167Z,22.20
2018-08-03T05:00:02.164Z,22.40
2018-08-03T05:02:37.244Z,22.60
2018-08-03T05:05:12.382Z,22.30
2018-08-03T05:07:47.569Z,22.40
2018-08-03T05:10:22.496Z,22.40
2018-08-03T05:12:57.649Z,23.00
2018-08-03T05:15:32.578Z,23.10
2018-08-03T05:18:08.016Z,22.90
2018-08-03T05:20:42.983Z,23.10
2018-08-03T05:23:18.024Z,22.90
2018-08-03T05:25:53.164Z,23.20
2018-08-03T05:31:02.784Z,22.70
2018-08-03T05:33:37.727Z,22.80
2018-08-03T05:36:12.837Z,22.70
2018-08-03T05:38:47.757Z,23.30
2018-08-03T05:41:22.708Z,23.10
2018-08-03T05:43:57.996Z,23.00
2018-08-03T05:49:07.744Z,23.10
2018-08-03T05:51:42.960Z,23.40
2018-08-03T05:54:18.099Z,23.50
2018-08-03T05:56:53.802Z,23.90
2018-08-03T05:59:28.876Z,24.20
2018-08-03T06:02:04.048Z,24.10
2018-08-03T06:04:39.060Z,23.60
2018-08-03T06:07:14.196Z,24.30
2018-08-03T06:09:49.295Z,24.50
2018-08-03T06:12:24.483Z,24.20
2018-08-03T06:14:59.592Z,24.10
2018-08-03T06:17:34.572Z,24.10
2018-08-03T06:20:11.732Z,24.10
2018-08-03T06:22:46.776Z,24.70
2018-08-03T06:25:21.848Z,25.10
2018-08-03T06:27:56.799Z,24.60
2018-08-03T06:30:31.939Z,24.70
2018-08-03T06:33:07.216Z,25.50
2018-08-03T06:35:42.207Z,25.20
2018-08-03T06:38:17.204Z,25.20
2018-08-03T06:40:52.420Z,25.20
2018-08-03T06:43:27.543Z,25.70
2018-08-03T06:46:02.716Z,25.90
2018-08-03T06:48:37.740Z,25.20
2018-08-03T06:51:12.721Z,24.90
2018-08-03T06:53:47.964Z,25.20
2018-08-03T06:56:23.216Z,25.50
2018-08-03T06:58:58.320Z,25.80
2018-08-03T07:01:33.340Z,25.70
2018-08-03T07:04:09.349Z,25.80
2018-08-03T07:06:44.308Z,25.80
2018-08-03T07:09:19.380Z,25.80
2018-08-03T07:11:55.584Z,25.50
2018-08-03T07:14:30.640Z,25.50
2018-08-03T07:17:05.760Z,25.60
2018-08-03T07:19:40.768Z,25.80
2018-08-03T07:22:15.867Z,26.20
2018-08-03T07:24:52.291Z,26.40
2018-08-03T07:27:28.637Z,26.20
2018-08-03T07:30:04.389Z,26.30
2018-08-03T07:32:39.347Z,26.40
2018-08-03T07:35:14.297Z,26.40
2018-08-03T07:37:49.441Z,26.50
2018-08-03T07:40:24.604Z,26.60
2018-08-03T07:42:59.767Z,26.40
2018-08-03T07:45:34.632Z,26.40
2018-08-03T07:48:09.654Z,26.50
2018-08-03T07:50:44.796Z,26.60
2018-08-03T07:53:19.904Z,26.70
2018-08-03T07:55:55.020Z,27.30
2018-08-03T07:58:30.128Z,27.90
2018-08-03T08:01:05.236Z,28.40
2018-08-03T08:03:41.503Z,28.90
2018-08-03T08:06:16.673Z,28.90
2018-08-03T08:08:51.904Z,29.30
2018-08-03T08:11:27.109Z,29.60
2018-08-03T08:14:02.262Z,29.80
2018-08-03T08:16:37.412Z,30.30
2018-08-03T08:19:12.492Z,30.20
2018-08-03T08:21:48.815Z,30.50
2018-08-03T08:24:24.010Z,31.00
2018-08-03T08:26:59.160Z,31.10
2018-08-03T08:29:34.418Z,30.80
2018-08-03T08:32:09.589Z,30.50
2018-08-03T08:34:44.584Z,30.30
2018-08-03T08:37:19.732Z,30.20
2018-08-03T08:39:54.958Z,30.20
2018-08-03T08:42:30.074Z,30.20
2018-08-03T08:45:05.280Z,30.10
2018-08-03T08:47:40.403Z,30.20
2018-08-03T08:50:15.492Z,30.20
2018-08-03T08:52:50.661Z,30.20
2018-08-03T08:55:25.747Z,30.20
2018-08-03T08:58:00.756Z,30.20
2018-08-03T09:00:35.728Z,30.20
2018-08-03T09:03:10.915Z,30.30
2018-08-03T09:05:46.068Z,30.30
2018-08-03T09:08:21.176Z,30.30
2018-08-03T09:10:56.116Z,30.30
2018-08-03T09:13:31.316Z,30.40
2018-08-03T09:16:06.544Z,30.40
2018-08-03T09:18:41.573Z,30.40
2018-08-03T09:21:16.499Z,30.40
2018-08-03T09:23:51.575Z,30.50
2018-08-03T09:26:26.572Z,30.50
2018-08-03T09:29:01.525Z,30.50
2018-08-03T09:31:36.671Z,30.50
2018-08-03T09:34:11.603Z,30.60
2018-08-03T09:36:46.672Z,30.60
2018-08-03T09:39:21.778Z,30.60
2018-08-03T09:41:56.764Z,30.70
2018-08-03T09:44:31.879Z,30.70
2018-08-03T09:47:06.895Z,30.70
2018-08-03T09:49:41.848Z,30.80
2018-08-03T09:52:16.822Z,30.70
2018-08-03T09:54:51.967Z,30.80
2018-08-03T09:57:27.025Z,30.80
2018-08-03T10:00:02.056Z,30.80
2018-08-03T10:02:37.100Z,30.90
2018-08-03T10:05:12.469Z,30.90
2018-08-03T10:07:47.432Z,31.00
2018-08-03T10:10:22.476Z,30.90
2018-08-03T10:12:57.535Z,31.00
2018-08-03T10:15:32.674Z,31.00
2018-08-03T10:18:07.559Z,31.00
2018-08-03T10:20:42.503Z,31.00
2018-08-03T10:23:17.627Z,31.10
2018-08-03T10:25:52.965Z,31.10
2018-08-03T10:28:28.035Z,31.10
2018-08-03T10:31:03.133Z,31.10
2018-08-03T10:33:38.140Z,31.20
2018-08-03T10:36:13.260Z,31.20
2018-08-03T10:38:48.228Z,31.20
2018-08-03T10:41:23.320Z,31.20
2018-08-03T10:43:58.304Z,31.20
2018-08-03T10:46:33.440Z,31.20
2018-08-03T10:49:08.604Z,31.20
2018-08-03T10:54:18.280Z,31.30
2018-08-03T10:56:53.353Z,31.30
2018-08-03T10:59:28.456Z,31.30
2018-08-03T11:02:03.598Z,31.30
2018-08-03T11:04:39.452Z,31.40
2018-08-03T11:07:14.604Z,31.40
2018-08-03T11:09:49.717Z,31.40
2018-08-03T11:12:24.808Z,31.40
2018-08-03T11:14:59.856Z,31.50
2018-08-03T11:17:34.944Z,31.50
2018-08-03T11:20:09.974Z,31.50
2018-08-03T11:22:45.396Z,31.50
2018-08-03T11:25:20.343Z,31.50
2018-08-03T11:27:55.297Z,31.50
2018-08-03T11:30:30.290Z,31.50
2018-08-03T11:33:05.357Z,31.60
2018-08-03T11:35:40.749Z,31.60
2018-08-03T11:38:15.752Z,31.60
2018-08-03T11:40:50.988Z,31.60
2018-08-03T11:43:26.008Z,31.60
2018-08-03T11:46:01.128Z,31.60
2018-08-03T11:48:36.392Z,31.60
2018-08-03T11:51:11.535Z,31.70
2018-08-03T11:53:46.689Z,31.70
2018-08-03T11:56:21.643Z,31.70
2018-08-03T11:58:56.727Z,31.70
2018-08-03T12:01:31.892Z,31.70
2018-08-03T12:04:06.859Z,31.70
2018-08-03T12:06:42.013Z,31.80
2018-08-03T12:09:17.032Z,31.80
2018-08-03T12:11:52.021Z,31.80
2018-08-03T12:14:27.028Z,31.80
2018-08-03T12:17:02.208Z,31.80
2018-08-03T12:19:37.673Z,31.90
2018-08-03T12:22:12.827Z,31.90
2018-08-03T12:24:47.780Z,31.90
2018-08-03T12:27:22.908Z,31.90
2018-08-03T12:29:57.964Z,31.90
2018-08-03T12:32:33.072Z,31.90
2018-08-03T12:35:08.184Z,31.90
2018-08-03T12:37:43.276Z,31.90
2018-08-03T12:40:18.493Z,31.90
2018-08-03T12:42:53.660Z,31.90
2018-08-03T12:45:33.995Z,32.00
2018-08-03T12:48:04.028Z,32.00
2018-08-03T12:50:39.076Z,32.00
2018-08-03T12:53:14.217Z,32.00
2018-08-03T12:55:49.408Z,32.00
2018-08-03T12:58:24.492Z,32.00
2018-08-03T13:00:59.568Z,32.10
2018-08-03T13:03:34.746Z,32.20
2018-08-03T13:06:09.856Z,32.10
2018-08-03T13:08:44.808Z,32.10
2018-08-03T13:11:20.011Z,32.10
2018-08-03T13:13:54.974Z,32.10
2018-08-03T13:16:29.896Z,32.20
2018-08-03T13:19:04.873Z,32.20
2018-08-03T13:21:41.074Z,32.30
2018-08-03T13:24:16.050Z,32.20
2018-08-03T13:26:51.201Z,32.30
2018-08-03T13:29:26.212Z,32.30
2018-08-03T13:32:01.220Z,32.40
2018-08-03T13:34:36.356Z,32.40
2018-08-03T13:37:11.436Z,32.50
2018-08-03T13:39:46.577Z,32.50
2018-08-03T13:42:38.637Z,32.50
2018-08-03T13:45:13.703Z,32.50
2018-08-03T13:47:48.720Z,32.50
2018-08-03T13:50:24.066Z,32.50
2018-08-03T13:52:59.083Z,32.40
2018-08-03T13:55:34.032Z,32.40
2018-08-03T13:58:09.009Z,32.50
2018-08-03T14:00:44.652Z,32.60
2018-08-03T14:03:19.797Z,32.60
2018-08-03T14:05:54.819Z,32.70
2018-08-03T14:08:29.949Z,32.80
2018-08-03T14:11:04.996Z,32.70
2018-08-03T14:13:39.916Z,32.80
2018-08-03T14:16:15.160Z,32.80
2018-08-03T14:18:50.241Z,32.90
2018-08-03T14:21:25.365Z,32.90
2018-08-03T14:24:00.524Z,32.90
2018-08-03T14:26:35.539Z,33.00
2018-08-03T14:29:10.546Z,33.00
2018-08-03T14:31:45.695Z,32.90
2018-08-03T14:34:20.786Z,33.00
2018-08-03T14:36:55.932Z,33.00
2018-08-03T14:39:30.973Z,33.00
2018-08-03T14:42:06.062Z,33.00
2018-08-03T14:44:41.227Z,32.90
2018-08-03T14:47:16.315Z,32.90
2018-08-03T14:49:51.628Z,32.90
2018-08-03T14:52:26.808Z,33.00
2018-08-03T14:55:02.108Z,33.00
2018-08-03T14:57:37.350Z,32.90
2018-08-03T15:00:12.533Z,32.90
2018-08-03T15:05:22.501Z,33.00
2018-08-03T15:07:57.878Z,32.90
2018-08-03T15:10:33.028Z,32.90
2018-08-03T15:13:08.152Z,32.90
2018-08-03T15:15:43.201Z,32.90
2018-08-03T15:18:18.336Z,32.90
2018-08-03T15:23:28.383Z,32.90
2018-08-03T15:26:03.438Z,32.90
2018-08-03T15:28:38.472Z,32.90
2018-08-03T15:31:13.428Z,32.90
2018-08-03T15:33:48.604Z,32.90
2018-08-03T15:36:23.532Z,33.00
2018-08-03T15:38:58.618Z,33.00
2018-08-03T15:41:33.656Z,32.90
2018-08-03T15:44:08.642Z,32.90
2018-08-03T15:46:43.687Z,32.90
2018-08-03T15:49:18.756Z,32.90
2018-08-03T15:51:53.970Z,32.90
2018-08-03T15:54:29.297Z,32.80
2018-08-03T15:57:04.640Z,32.80
2018-08-03T15:59:39.577Z,32.80
2018-08-03T16:02:14.589Z,32.70
2018-08-03T16:04:49.684Z,32.70
2018-08-03T16:07:24.880Z,32.70
2018-08-03T16:09:59.963Z,32.70
2018-08-03T16:15:09.628Z,32.60
2018-08-03T16:17:44.640Z,32.60
2018-08-03T16:20:19.746Z,32.60
2018-08-03T16:22:54.848Z,32.40
2018-08-03T16:28:05.833Z,32.30
2018-08-03T16:30:40.860Z,32.30
2018-08-03T16:33:16.005Z,32.20
2018-08-03T16:35:51.440Z,32.20
2018-08-03T16:38:26.515Z,32.20
2018-08-03T16:41:01.668Z,32.20
2018-08-03T16:43:36.651Z,32.20
2018-08-03T16:46:11.771Z,32.20
2018-08-03T16:48:46.930Z,32.20
2018-08-03T16:51:21.940Z,32.20
2018-08-03T16:53:57.225Z,32.20
2018-08-03T16:56:32.355Z,32.30
2018-08-03T16:59:07.483Z,32.30
2018-08-03T17:01:42.423Z,32.40
2018-08-03T17:04:17.395Z,32.40
2018-08-03T17:06:52.536Z,32.40
2018-08-03T17:09:27.668Z,32.40
2018-08-03T17:12:02.680Z,32.40
2018-08-03T17:14:37.723Z,32.40
2018-08-03T17:17:12.992Z,32.40
2018-08-03T17:19:48.106Z,32.40
2018-08-03T17:22:23.152Z,32.30
2018-08-03T17:24:58.160Z,32.30
2018-08-03T17:27:33.375Z,32.30
2018-08-03T17:30:08.578Z,32.30
2018-08-03T17:32:43.624Z,32.30
2018-08-03T17:35:18.649Z,32.30
2018-08-03T17:37:53.732Z,32.30
2018-08-03T17:40:28.848Z,32.30
2018-08-03T17:43:03.812Z,32.30
2018-08-03T17:45:38.935Z,32.30
2018-08-03T17:48:13.906Z,32.30
2018-08-03T17:50:49.012Z,32.30
2018-08-03T17:53:24.100Z,32.20
2018-08-03T17:55:59.562Z,32.20
2018-08-03T17:58:34.607Z,32.20
2018-08-03T18:01:10.360Z,32.10
2018-08-03T18:03:45.260Z,32.10
2018-08-03T18:06:20.817Z,32.10
2018-08-03T18:08:55.804Z,32.00
2018-08-03T18:11:30.921Z,32.00
2018-08-03T18:14:06.056Z,31.90
2018-08-03T18:16:41.296Z,31.80
2018-08-03T18:19:16.671Z,31.70
2018-08-03T18:21:51.653Z,31.80
2018-08-03T18:24:26.824Z,31.80
2018-08-03T18:27:01.848Z,31.80
2018-08-03T18:29:36.840Z,31.80
2018-08-03T18:32:11.952Z,31.70
2018-08-03T18:34:47.113Z,31.60
2018-08-03T18:37:22.099Z,31.70
2018-08-03T18:39:57.281Z,31.70
2018-08-03T18:45:08.067Z,31.40
2018-08-03T18:47:43.188Z,31.50
2018-08-03T18:50:18.381Z,31.40
2018-08-03T18:52:53.383Z,31.30
2018-08-03T18:55:28.536Z,31.30
2018-08-03T18:58:03.649Z,31.20
2018-08-03T19:00:38.677Z,31.20
2018-08-03T19:05:48.412Z,30.90
2018-08-03T19:08:23.547Z,31.00
2018-08-03T19:10:58.829Z,30.90
2018-08-03T19:13:33.936Z,31.00
2018-08-03T19:16:09.821Z,30.60
2018-08-03T19:18:44.848Z,30.40
2018-08-03T19:21:19.870Z,30.40
2018-08-03T19:23:54.853Z,30.40
2018-08-03T19:26:29.968Z,30.30
2018-08-03T19:29:05.178Z,30.20
2018-08-03T19:31:40.361Z,30.20
2018-08-03T19:34:15.376Z,30.20
2018-08-03T19:36:50.382Z,30.10
2018-08-03T19:39:25.510Z,30.00
2018-08-03T19:42:00.638Z,30.00
2018-08-03T19:44:35.796Z,30.00
2018-08-03T19:47:10.925Z,29.90
2018-08-03T19:49:45.864Z,30.10
2018-08-03T19:52:21.004Z,29.90
2018-08-03T19:54:56.012Z,29.80
2018-08-03T20:00:08.072Z,29.80
2018-08-03T20:02:43.052Z,29.70
2018-08-03T20:05:18.268Z,29.60
2018-08-03T20:07:53.350Z,29.70
2018-08-03T20:10:28.440Z,29.50
2018-08-03T20:13:03.683Z,29.50
2018-08-03T20:15:38.688Z,29.70
2018-08-03T20:18:13.752Z,29.40
2018-08-03T20:20:48.964Z,29.40
2018-08-03T20:23:24.133Z,29.30
2018-08-03T20:25:59.274Z,29.10
2018-08-03T20:28:34.413Z,29.30
2018-08-03T20:33:44.496Z,29.50
2018-08-03T20:36:19.524Z,29.30
2018-08-03T20:38:54.501Z,29.10
2018-08-03T20:41:29.707Z,29.10
2018-08-03T20:44:04.777Z,28.90
2018-08-03T20:46:39.911Z,28.80
2018-08-03T20:49:14.962Z,28.60
2018-08-03T20:51:50.049Z,28.40
2018-08-03T20:54:25.296Z,28.60
2018-08-03T20:57:00.450Z,28.60
2018-08-03T20:59:35.569Z,28.40
2018-08-03T21:02:10.592Z,28.20
2018-08-03T21:04:45.656Z,28.40
2018-08-03T21:07:20.760Z,28.10
2018-08-03T21:09:55.804Z,28.00
2018-08-03T21:12:30.829Z,27.90
2018-08-03T21:15:07.009Z,27.90
2018-08-03T21:17:42.067Z,27.90
2018-08-03T21:20:17.084Z,27.70
2018-08-03T21:22:52.085Z,27.70
2018-08-03T21:25:27.040Z,27.50
2018-08-03T21:28:02.117Z,27.50
2018-08-03T21:30:37.104Z,27.50
2018-08-03T21:35:47.043Z,27.20
2018-08-03T21:38:22.187Z,27.40
2018-08-03T21:40:57.150Z,27.20
2018-08-03T21:43:32.284Z,27.00
2018-08-03T21:46:07.420Z,27.10
2018-08-03T21:48:42.460Z,27.10
2018-08-03T21:51:17.421Z,27.10
2018-08-03T21:53:52.959Z,27.10
2018-08-03T21:56:28.057Z,27.10
2018-08-03T21:59:03.085Z,26.90
2018-08-03T22:01:38.347Z,26.70
2018-08-03T22:04:13.344Z,26.50
2018-08-03T22:06:48.336Z,26.40
2018-08-03T22:09:23.392Z,26.30
2018-08-03T22:11:58.720Z,26.30
2018-08-03T22:14:33.768Z,26.50
2018-08-03T22:17:08.872Z,26.50
2018-08-03T22:19:43.824Z,26.50
2018-08-03T22:22:18.856Z,26.70
2018-08-03T22:24:53.820Z,26.90
2018-08-03T22:27:28.775Z,26.70
2018-08-03T22:30:04.527Z,26.80
2018-08-03T22:32:39.660Z,26.90
2018-08-03T22:35:14.495Z,27.10
2018-08-03T22:37:49.579Z,26.60
2018-08-03T22:40:24.591Z,26.90
2018-08-03T22:42:59.683Z,26.80
2018-08-03T22:45:34.914Z,26.80
2018-08-03T22:48:09.937Z,26.70
2018-08-03T22:50:45.076Z,26.80
2018-08-03T22:53:20.027Z,26.60
2018-08-03T22:55:55.044Z,26.50
2018-08-03T22:58:30.076Z,26.40
2018-08-03T23:01:05.367Z,26.40
2018-08-03T23:03:40.335Z,26.30
2018-08-03T23:06:15.436Z,26.40
2018-08-03T23:08:50.612Z,26.30
2018-08-03T23:11:25.672Z,26.10
2018-08-03T23:14:00.726Z,25.80
2018-08-03T23:16:35.855Z,25.60
2018-08-03T23:19:10.977Z,25.50
2018-08-03T23:21:46.044Z,25.60
2018-08-03T23:24:21.178Z,25.50
2018-08-03T23:26:56.140Z,25.60
2018-08-03T23:29:31.253Z,25.50
2018-08-03T23:32:06.352Z,25.70
2018-08-03T23:34:41.560Z,25.50
2018-08-03T23:37:16.719Z,25.40
2018-08-03T23:39:51.708Z,25.20
2018-08-03T23:42:26.752Z,25.30
2018-08-03T23:45:01.868Z,25.40
2018-08-03T23:47:37.158Z,25.60
2018-08-03T23:50:13.836Z,25.50
2018-08-03T23:52:49.668Z,25.70
2018-08-03T23:55:24.733Z,25.50
2018-08-03T23:57:59.852Z,25.30
